Pagina principale
METAR-TAF:

METAR-TAF

Aeroporti :

Bad Vöslau, Austria

latitudine: 47-57-52N, longitudine: 016-15-34E, altezza: 233 m

Osservazione

Il bollettino è stato emesso 11 ore e 25 minuti fa, alle 16:00 UTC
Vento 28 kt da ovest con raffiche fino a 57 kt
Temperature 20°C
Umidità 43%
Pressione

METAR: LOAV 231600Z 28028G57KT 40KM SCT030CU BKN050SC 20/07

Ora: 04:25 (03:25 UTC)

Previsione

Il bollettino è stato emesso 11 ore e 16 minuti fa, alle 16:09 UTC
Previsione valida dal 23 alle 16 UTC al 23 alle 21 UTC
Vento 25 kt da ovest con raffiche fino a 40 kt
Visibilità 10 km o più
Nubi sparse ad un'altezza di 4000 ft
Temporaneamente
dal 23 alle 16 UTC al 23 alle 21 UTC
Vento 40 kt da ovest/nord-ovest con raffiche fino a 55 kt
Nuvoloso ad un'altezza di 4000 ft

TAF: LOAV 231609Z 2316/2321 27025G40KT 9999 SCT040 TEMPO 2316/2321 29040G55KT BKN040

Osservazioni e previsioni meteorologiche di più di 4000 aeroporti (messaggi METAR e TAF).

Le stazioni disponibili sono rappresentate dai dischi gialli e rossi sulla carta.

Puntare il mouse per vedere il nome della stazione.

Clicca sopra per visualizzare le osservazioni e previsioni meteorologiche.

Per cambiare la mappa : fare clic sui pulsanti verdi con una croce nera per ingrandire, il pulsante verde con un trattino per diminuire, o sulla freccia verde per le mappe adiacenti.


METAR-TAF: